createdAt,value
2018-05-03T00:00:20.108Z,62.82
2018-05-03T00:02:46.054Z,61.47
2018-05-03T00:05:12.011Z,61.95
2018-05-03T00:07:37.984Z,61.76
2018-05-03T00:10:03.912Z,61.23
2018-05-03T00:12:29.854Z,60.84
2018-05-03T00:14:55.808Z,60.86
2018-05-03T00:17:21.760Z,60.46
2018-05-03T00:19:47.727Z,61.06
2018-05-03T00:22:13.704Z,61.90
2018-05-03T00:24:39.671Z,61.44
2018-05-03T00:27:05.605Z,61.15
2018-05-03T00:29:31.577Z,61.62
2018-05-03T00:31:57.560Z,61.99
2018-05-03T00:34:23.519Z,62.48
2018-05-03T00:36:49.471Z,62.59
2018-05-03T00:39:15.405Z,62.39
2018-05-03T00:41:41.333Z,61.37
2018-05-03T00:44:07.299Z,62.18
2018-05-03T00:46:33.264Z,62.27
2018-05-03T00:48:59.321Z,61.79
2018-05-03T00:51:25.275Z,63.15
2018-05-03T00:53:51.225Z,62.41
2018-05-03T00:56:17.174Z,63.00
2018-05-03T00:58:44.192Z,62.64
2018-05-03T01:01:10.186Z,62.69
2018-05-03T01:03:36.130Z,62.98
2018-05-03T01:06:02.064Z,64.40
2018-05-03T01:08:28.035Z,63.55
2018-05-03T01:10:53.962Z,64.77
2018-05-03T01:13:19.906Z,63.42
2018-05-03T01:15:45.856Z,64.63
2018-05-03T01:18:11.792Z,64.77
2018-05-03T01:20:37.735Z,66.67
2018-05-03T01:23:03.707Z,64.40
2018-05-03T01:25:29.660Z,64.40
2018-05-03T01:27:55.628Z,65.40
2018-05-03T01:30:21.561Z,67.31
2018-05-03T01:32:47.499Z,66.50
2018-05-03T01:35:13.452Z,66.04
2018-05-03T01:37:39.412Z,66.47
2018-05-03T01:40:05.354Z,69.44
2018-05-03T01:42:31.298Z,68.55
2018-05-03T01:44:57.275Z,66.99
2018-05-03T01:47:23.215Z,67.72
2018-05-03T01:49:49.195Z,69.67
2018-05-03T01:52:15.139Z,68.67
2018-05-03T01:54:41.124Z,69.28
2018-05-03T01:57:07.085Z,70.94
2018-05-03T01:59:33.056Z,71.22
2018-05-03T02:01:59.008Z,69.81
2018-05-03T02:04:24.997Z,69.41
2018-05-03T02:06:50.977Z,68.69
2018-05-03T02:09:16.965Z,69.24
2018-05-03T02:11:42.904Z,68.90
2018-05-03T02:14:08.862Z,69.66
2018-05-03T02:16:34.810Z,69.54
2018-05-03T02:19:00.783Z,69.97
2018-05-03T02:21:26.709Z,70.46
2018-05-03T02:23:52.652Z,68.74
2018-05-03T02:26:18.577Z,67.99
2018-05-03T02:28:44.536Z,66.91
2018-05-03T02:31:10.520Z,68.82
2018-05-03T02:33:36.475Z,68.48
2018-05-03T02:36:02.409Z,68.00
2018-05-03T02:38:28.376Z,67.85
2018-05-03T02:40:54.391Z,68.29
2018-05-03T02:43:20.319Z,68.36
2018-05-03T02:45:46.267Z,69.12
2018-05-03T02:48:12.210Z,68.61
2018-05-03T02:50:38.150Z,69.93
2018-05-03T02:53:04.105Z,69.41
2018-05-03T02:55:30.077Z,67.98
2018-05-03T02:57:56.009Z,69.13
2018-05-03T03:00:21.979Z,67.85
2018-05-03T03:02:47.957Z,69.39
2018-05-03T03:05:13.908Z,69.22
2018-05-03T03:07:39.865Z,68.28
2018-05-03T03:10:05.809Z,68.50
2018-05-03T03:12:31.787Z,68.99
2018-05-03T03:14:57.774Z,68.00
2018-05-03T03:17:23.744Z,68.08
2018-05-03T03:19:49.674Z,70.00
2018-05-03T03:22:15.641Z,69.19
2018-05-03T03:24:41.703Z,70.02
2018-05-03T03:27:07.645Z,69.07
2018-05-03T03:29:33.592Z,69.52
2018-05-03T03:31:59.590Z,69.90
2018-05-03T03:34:25.536Z,68.14
2018-05-03T03:36:51.503Z,68.02
2018-05-03T03:39:17.542Z,68.50
2018-05-03T03:41:43.479Z,67.76
2018-05-03T03:44:09.418Z,67.60
2018-05-03T03:46:35.370Z,69.40
2018-05-03T03:49:01.327Z,68.17
2018-05-03T03:51:27.321Z,69.04
2018-05-03T03:53:53.270Z,67.71
2018-05-03T03:56:21.320Z,66.90
2018-05-03T03:58:47.832Z,67.27
2018-05-03T04:01:14.878Z,68.05
2018-05-03T04:03:40.823Z,66.99
2018-05-03T04:06:06.775Z,67.08
2018-05-03T04:08:32.731Z,67.75
2018-05-03T04:10:58.692Z,68.67
2018-05-03T04:15:59.550Z,68.79
2018-05-03T04:18:25.495Z,68.35
2018-05-03T04:20:51.454Z,69.56
2018-05-03T04:23:17.436Z,69.47
2018-05-03T04:25:43.406Z,67.93
2018-05-03T04:28:09.396Z,68.96
2018-05-03T04:30:35.340Z,70.56
2018-05-03T04:33:01.313Z,72.23
2018-05-03T04:35:27.335Z,71.64
2018-05-03T04:37:53.311Z,70.10
2018-05-03T04:40:19.299Z,70.74
2018-05-03T04:42:45.248Z,68.94
2018-05-03T04:45:11.222Z,69.82
2018-05-03T04:47:37.170Z,70.54
2018-05-03T04:50:03.119Z,70.48
2018-05-03T04:52:29.075Z,71.69
2018-05-03T04:54:55.045Z,72.83
2018-05-03T04:57:21.002Z,72.55
2018-05-03T04:59:46.966Z,72.81
2018-05-03T05:02:12.932Z,72.44
2018-05-03T05:04:38.896Z,70.97
2018-05-03T05:07:04.909Z,69.43
2018-05-03T05:09:30.863Z,70.21
2018-05-03T05:11:56.804Z,70.44
2018-05-03T05:14:22.742Z,69.32
2018-05-03T05:16:48.724Z,68.00
2018-05-03T05:19:14.702Z,68.47
2018-05-03T05:21:40.679Z,68.15
2018-05-03T05:24:06.612Z,68.54
2018-05-03T05:26:32.608Z,70.55
2018-05-03T05:28:58.583Z,68.14
2018-05-03T05:31:24.557Z,68.95
2018-05-03T05:33:50.506Z,69.58
2018-05-03T05:36:16.436Z,70.32
2018-05-03T05:38:42.440Z,70.65
2018-05-03T05:41:08.370Z,70.90
2018-05-03T05:43:34.308Z,69.61
2018-05-03T05:46:00.241Z,69.19
2018-05-03T05:48:26.187Z,69.56
2018-05-03T05:50:52.137Z,70.22
2018-05-03T05:53:18.133Z,68.60
2018-05-03T05:55:44.102Z,68.43
2018-05-03T05:58:10.068Z,68.23
2018-05-03T06:00:36.257Z,67.29
2018-05-03T06:03:02.371Z,67.71
2018-05-03T06:05:28.373Z,67.69
2018-05-03T06:07:54.502Z,69.62
2018-05-03T06:10:20.483Z,68.88
2018-05-03T06:12:46.435Z,68.85
2018-05-03T06:15:12.388Z,68.13
2018-05-03T06:17:38.357Z,68.03
2018-05-03T06:20:04.293Z,67.74
2018-05-03T06:22:30.248Z,67.94
2018-05-03T06:24:56.208Z,68.79
2018-05-03T06:27:22.176Z,67.42
2018-05-03T06:29:48.154Z,67.90
2018-05-03T06:32:14.173Z,66.11
2018-05-03T06:34:40.125Z,66.92
2018-05-03T06:37:06.061Z,67.38
2018-05-03T06:39:32.065Z,68.68
2018-05-03T06:41:58.050Z,69.09
2018-05-03T06:44:24.024Z,68.17
2018-05-03T06:46:49.986Z,68.74
2018-05-03T06:49:15.961Z,68.90
2018-05-03T06:51:41.949Z,67.68
2018-05-03T06:54:07.934Z,67.02
2018-05-03T06:56:33.885Z,67.04
2018-05-03T06:58:59.957Z,67.28
2018-05-03T07:01:25.892Z,65.39
2018-05-03T07:03:51.867Z,65.25
2018-05-03T07:06:17.814Z,65.46
2018-05-03T07:08:43.760Z,65.66
2018-05-03T07:11:09.734Z,65.13
2018-05-03T07:13:35.721Z,65.45
2018-05-03T07:16:01.739Z,65.20
2018-05-03T07:18:27.719Z,65.21
2018-05-03T07:20:53.676Z,64.77
2018-05-03T07:23:19.644Z,65.16
2018-05-03T07:25:45.603Z,65.28
2018-05-03T07:28:11.546Z,65.48
2018-05-03T07:30:37.548Z,65.09
2018-05-03T07:33:03.480Z,64.19
2018-05-03T07:35:29.458Z,64.54
2018-05-03T07:37:55.408Z,64.54
2018-05-03T07:40:21.424Z,64.35
2018-05-03T07:42:47.426Z,64.03
2018-05-03T07:45:13.412Z,64.54
2018-05-03T07:47:39.385Z,64.35
2018-05-03T07:50:05.339Z,64.68
2018-05-03T07:52:31.326Z,64.71
2018-05-03T07:54:57.276Z,65.73
2018-05-03T07:57:23.253Z,64.42
2018-05-03T07:59:49.200Z,63.93
2018-05-03T08:02:15.162Z,64.47
2018-05-03T08:04:41.127Z,64.48
2018-05-03T08:07:07.153Z,63.86
2018-05-03T08:09:33.417Z,63.09
2018-05-03T08:11:59.381Z,63.12
2018-05-03T08:14:25.312Z,63.20
2018-05-03T08:16:51.298Z,63.43
2018-05-03T08:19:17.253Z,63.98
2018-05-03T08:21:43.228Z,63.71
2018-05-03T08:24:09.184Z,63.83
2018-05-03T08:26:35.200Z,62.83
2018-05-03T08:29:01.435Z,63.13
2018-05-03T08:31:27.409Z,62.95
2018-05-03T08:33:53.371Z,62.41
2018-05-03T08:36:19.321Z,61.65
2018-05-03T08:38:45.294Z,61.92
2018-05-03T08:41:11.252Z,62.09
2018-05-03T08:43:37.226Z,62.93
2018-05-03T08:46:03.193Z,63.05
2018-05-03T08:48:29.158Z,62.40
2018-05-03T08:50:55.121Z,62.22
2018-05-03T08:53:21.063Z,61.37
2018-05-03T08:55:47.023Z,61.94
2018-05-03T08:58:12.976Z,61.94
2018-05-03T09:00:38.945Z,61.74
2018-05-03T09:03:04.883Z,61.10
2018-05-03T09:05:30.817Z,60.34
2018-05-03T09:07:56.812Z,61.26
2018-05-03T09:10:22.750Z,61.17
2018-05-03T09:12:48.710Z,60.57
2018-05-03T09:15:14.668Z,60.34
2018-05-03T09:17:40.650Z,59.96
2018-05-03T09:20:06.583Z,59.29
2018-05-03T09:22:32.597Z,58.99
2018-05-03T09:24:58.520Z,58.95
2018-05-03T09:27:24.495Z,59.07
2018-05-03T09:29:50.467Z,58.97
2018-05-03T09:32:16.427Z,58.62
2018-05-03T09:34:42.384Z,59.04
2018-05-03T09:37:08.375Z,58.79
2018-05-03T09:39:34.309Z,59.03
2018-05-03T09:42:00.259Z,58.86
2018-05-03T09:44:26.267Z,58.75
2018-05-03T09:46:52.200Z,59.38
2018-05-03T09:49:18.152Z,58.55
2018-05-03T09:51:44.108Z,58.92
2018-05-03T09:54:10.115Z,58.78
2018-05-03T09:56:36.073Z,58.07
2018-05-03T09:59:02.041Z,58.61
2018-05-03T10:01:27.989Z,58.68
2018-05-03T10:03:53.954Z,58.39
2018-05-03T10:06:19.905Z,58.94
2018-05-03T10:08:45.837Z,58.67
2018-05-03T10:11:11.786Z,59.10
2018-05-03T10:13:37.797Z,59.18
2018-05-03T10:16:03.792Z,59.22
2018-05-03T10:18:29.747Z,59.17
2018-05-03T10:20:55.693Z,59.44
2018-05-03T10:23:21.659Z,59.38
2018-05-03T10:25:47.593Z,59.17
2018-05-03T10:28:13.537Z,59.18
2018-05-03T10:30:39.473Z,59.20
2018-05-03T10:33:05.530Z,59.37
2018-05-03T10:35:31.544Z,59.34
2018-05-03T10:37:57.483Z,59.21
2018-05-03T10:40:23.462Z,59.03
2018-05-03T10:42:49.437Z,59.19
2018-05-03T10:45:15.543Z,58.91
2018-05-03T10:47:41.530Z,58.95
2018-05-03T10:50:07.500Z,58.95
2018-05-03T10:52:33.490Z,58.72
2018-05-03T10:54:59.439Z,58.60
2018-05-03T10:57:25.510Z,58.86
2018-05-03T10:59:51.439Z,58.59
2018-05-03T11:02:17.441Z,58.88
2018-05-03T11:04:43.372Z,58.82
2018-05-03T11:07:09.307Z,58.60
2018-05-03T11:09:35.261Z,58.53
2018-05-03T11:12:01.213Z,58.54
2018-05-03T11:14:27.226Z,58.31
2018-05-03T11:16:53.167Z,58.12
2018-05-03T11:19:19.145Z,58.12
2018-05-03T11:21:45.119Z,57.98
2018-05-03T11:24:11.079Z,57.93
2018-05-03T11:26:37.040Z,57.78
2018-05-03T11:29:03.052Z,57.94
2018-05-03T11:31:29.087Z,57.91
2018-05-03T11:33:55.075Z,58.18
2018-05-03T11:36:20.990Z,58.11
2018-05-03T11:38:46.952Z,57.21
2018-05-03T11:41:13.018Z,56.63
2018-05-03T11:43:39.033Z,56.99
2018-05-03T11:46:04.957Z,57.04
2018-05-03T11:48:30.973Z,57.44
2018-05-03T11:50:57.058Z,57.39
2018-05-03T11:53:23.055Z,56.92
2018-05-03T11:55:49.081Z,56.97
2018-05-03T11:58:15.055Z,57.73
2018-05-03T12:00:41.026Z,56.86
2018-05-03T12:03:07.068Z,56.84
2018-05-03T12:05:33.049Z,57.17
2018-05-03T12:07:59.141Z,56.90
2018-05-03T12:10:26.321Z,56.58
2018-05-03T12:12:52.729Z,56.64
2018-05-03T12:15:18.668Z,56.05
2018-05-03T12:17:44.743Z,56.28
2018-05-03T12:20:11.823Z,55.60
2018-05-03T12:22:37.827Z,55.76
2018-05-03T12:25:04.119Z,55.74
2018-05-03T12:27:30.067Z,55.86
2018-05-03T12:29:56.173Z,55.58
2018-05-03T12:32:22.490Z,55.70
2018-05-03T12:34:48.876Z,55.91
2018-05-03T12:37:15.144Z,55.50
2018-05-03T12:39:41.159Z,55.84
2018-05-03T12:42:07.185Z,55.12
2018-05-03T12:44:33.124Z,54.96
2018-05-03T12:46:59.073Z,54.17
2018-05-03T12:49:26.273Z,55.36
2018-05-03T12:51:52.265Z,55.32
2018-05-03T12:54:18.248Z,55.16
2018-05-03T12:56:45.093Z,55.07
2018-05-03T12:59:11.080Z,54.70
2018-05-03T13:01:37.057Z,54.23
2018-05-03T13:04:03.424Z,54.24
2018-05-03T13:06:29.411Z,54.87
2018-05-03T13:08:55.909Z,54.93
2018-05-03T13:11:21.929Z,54.60
2018-05-03T13:13:47.978Z,54.70
2018-05-03T13:16:15.417Z,54.69
2018-05-03T13:18:41.440Z,54.59
2018-05-03T13:21:07.382Z,54.59
2018-05-03T13:23:33.336Z,55.05
2018-05-03T13:25:59.299Z,55.59
2018-05-03T13:28:25.234Z,54.98
2018-05-03T13:30:51.198Z,54.86
2018-05-03T13:33:17.188Z,54.69
2018-05-03T13:35:43.247Z,54.98
2018-05-03T13:38:09.174Z,54.89
2018-05-03T13:40:35.199Z,55.98
2018-05-03T13:43:01.180Z,55.19
2018-05-03T13:45:27.141Z,55.10
2018-05-03T13:47:53.106Z,55.51
2018-05-03T13:50:19.076Z,56.28
2018-05-03T13:52:45.058Z,55.68
2018-05-03T13:55:11.018Z,56.29
2018-05-03T13:57:36.996Z,56.56
2018-05-03T14:00:02.977Z,56.40
2018-05-03T14:02:28.945Z,55.83
2018-05-03T14:04:54.914Z,56.35
2018-05-03T14:07:20.969Z,55.74
2018-05-03T14:09:46.918Z,55.53
2018-05-03T14:12:12.887Z,55.62
2018-05-03T14:14:38.868Z,55.38
2018-05-03T14:17:04.823Z,54.83
2018-05-03T14:19:30.776Z,55.42
2018-05-03T14:21:56.786Z,54.15
2018-05-03T14:24:22.732Z,54.61
2018-05-03T14:26:49.113Z,55.41
2018-05-03T14:29:15.073Z,55.28
2018-05-03T14:31:41.058Z,54.76
2018-05-03T14:34:07.030Z,56.03
2018-05-03T14:36:33.313Z,55.91
2018-05-03T14:38:59.284Z,55.45
2018-05-03T14:41:25.257Z,55.69
2018-05-03T14:43:51.242Z,56.04
2018-05-03T14:46:17.176Z,55.09
2018-05-03T14:48:43.160Z,56.07
2018-05-03T14:51:10.174Z,54.94
2018-05-03T14:53:36.126Z,55.52
2018-05-03T14:56:02.084Z,55.63
2018-05-03T14:58:28.082Z,55.35
2018-05-03T15:00:54.213Z,55.03
2018-05-03T15:03:20.226Z,55.35
2018-05-03T15:05:46.200Z,55.89
2018-05-03T15:08:12.315Z,55.51
2018-05-03T15:10:38.338Z,55.88
2018-05-03T15:13:04.249Z,55.55
2018-05-03T15:15:30.245Z,56.13
2018-05-03T15:17:56.196Z,55.66
2018-05-03T15:20:22.193Z,56.13
2018-05-03T15:22:48.263Z,56.33
2018-05-03T15:25:14.228Z,55.79
2018-05-03T15:27:40.177Z,56.27
2018-05-03T15:30:06.165Z,56.27
2018-05-03T15:32:32.142Z,55.76
2018-05-03T15:34:58.082Z,55.80
2018-05-03T15:37:24.090Z,56.23
2018-05-03T15:39:50.043Z,55.94
2018-05-03T15:42:16.011Z,55.94
2018-05-03T15:44:42.072Z,56.27
2018-05-03T15:47:08.021Z,55.65
2018-05-03T15:49:33.995Z,55.57
2018-05-03T15:51:59.967Z,54.86
2018-05-03T15:54:25.977Z,55.25
2018-05-03T15:56:51.979Z,55.51
2018-05-03T15:59:17.910Z,55.42
2018-05-03T16:01:43.848Z,55.41
2018-05-03T16:04:09.811Z,55.33
2018-05-03T16:06:35.838Z,54.65
2018-05-03T16:09:01.841Z,54.14
2018-05-03T16:11:27.865Z,54.46
2018-05-03T16:13:53.815Z,53.76
2018-05-03T16:16:19.788Z,54.03
2018-05-03T16:18:46.100Z,54.31
2018-05-03T16:21:12.088Z,53.63
2018-05-03T16:23:38.039Z,53.37
2018-05-03T16:26:03.981Z,53.04
2018-05-03T16:28:29.934Z,52.44
2018-05-03T16:30:55.884Z,52.95
2018-05-03T16:33:21.868Z,52.90
2018-05-03T16:35:47.845Z,53.52
2018-05-03T16:38:13.792Z,52.79
2018-05-03T16:40:39.754Z,52.78
2018-05-03T16:43:05.828Z,52.67
2018-05-03T16:45:31.790Z,52.97
2018-05-03T16:47:57.830Z,53.23
2018-05-03T16:50:24.744Z,55.89
2018-05-03T16:52:50.700Z,57.13
2018-05-03T16:55:16.703Z,57.42
2018-05-03T16:57:42.759Z,57.82
2018-05-03T17:00:08.761Z,58.25
2018-05-03T17:02:34.764Z,58.27
2018-05-03T17:05:00.730Z,58.65
2018-05-03T17:07:26.677Z,58.17
2018-05-03T17:09:52.658Z,57.95
2018-05-03T17:12:18.733Z,56.66
2018-05-03T17:14:45.041Z,57.96
2018-05-03T17:17:11.068Z,57.83
2018-05-03T17:19:37.152Z,57.93
2018-05-03T17:22:03.107Z,58.55
2018-05-03T17:24:29.073Z,58.25
2018-05-03T17:26:55.029Z,57.87
2018-05-03T17:29:21.005Z,57.33
2018-05-03T17:31:46.947Z,58.13
2018-05-03T17:34:13.052Z,58.47
2018-05-03T17:36:39.114Z,57.31
2018-05-03T17:39:05.173Z,58.30
2018-05-03T17:41:31.123Z,58.79
2018-05-03T17:43:57.108Z,59.25
2018-05-03T17:46:23.072Z,59.58
2018-05-03T17:48:49.032Z,59.54
2018-05-03T17:51:15.064Z,59.52
2018-05-03T17:53:41.012Z,59.69
2018-05-03T17:56:07.003Z,59.64
2018-05-03T17:58:33.009Z,60.38
2018-05-03T18:00:59.052Z,60.83
2018-05-03T18:03:25.022Z,60.74
2018-05-03T18:05:51.068Z,61.12
2018-05-03T18:08:17.091Z,61.26
2018-05-03T18:10:43.099Z,61.04
2018-05-03T18:13:09.109Z,60.90
2018-05-03T18:15:35.089Z,60.26
2018-05-03T18:18:01.057Z,60.60
2018-05-03T18:20:27.038Z,59.93
2018-05-03T18:22:53.052Z,60.28
2018-05-03T18:25:19.005Z,60.73
2018-05-03T18:27:45.009Z,60.18
2018-05-03T18:30:11.654Z,60.19
2018-05-03T18:32:37.611Z,60.34
2018-05-03T18:35:03.622Z,60.46
2018-05-03T18:37:29.626Z,61.13
2018-05-03T18:39:55.637Z,61.06
2018-05-03T18:42:21.660Z,60.18
2018-05-03T18:44:47.620Z,61.28
2018-05-03T18:47:13.584Z,60.33
2018-05-03T18:49:39.632Z,60.16
2018-05-03T18:52:05.604Z,61.50
2018-05-03T18:54:31.611Z,60.66
2018-05-03T18:56:57.619Z,62.12
2018-05-03T18:59:23.603Z,61.82
2018-05-03T19:01:49.635Z,61.24
2018-05-03T19:04:15.640Z,61.93
2018-05-03T19:06:41.641Z,62.13
2018-05-03T19:09:07.678Z,63.77
2018-05-03T19:11:33.671Z,63.88
2018-05-03T19:13:59.611Z,63.12
2018-05-03T19:16:25.577Z,63.43
2018-05-03T19:18:51.540Z,64.84
2018-05-03T19:21:17.545Z,62.04
2018-05-03T19:23:43.529Z,61.45
2018-05-03T19:26:09.538Z,61.30
2018-05-03T19:28:35.524Z,61.83
2018-05-03T19:31:01.520Z,61.15
2018-05-03T19:33:27.451Z,61.43
2018-05-03T19:35:53.406Z,60.59
2018-05-03T19:38:19.382Z,60.21
2018-05-03T19:40:45.364Z,60.12
2018-05-03T19:43:11.445Z,59.08
2018-05-03T19:45:37.412Z,59.31
2018-05-03T19:48:03.424Z,60.18
2018-05-03T19:50:29.410Z,59.75
2018-05-03T19:52:55.499Z,60.20
2018-05-03T19:55:21.621Z,59.26
2018-05-03T19:57:47.516Z,58.70
2018-05-03T20:00:13.501Z,57.84
2018-05-03T20:02:39.456Z,55.28
2018-05-03T20:05:05.415Z,54.54
2018-05-03T20:07:31.440Z,54.28
2018-05-03T20:09:58.513Z,53.94
2018-05-03T20:12:24.522Z,54.76
2018-05-03T20:14:50.518Z,55.37
2018-05-03T20:17:16.519Z,54.71
2018-05-03T20:19:42.584Z,52.13
2018-05-03T20:22:09.630Z,53.03
2018-05-03T20:24:35.649Z,53.39
2018-05-03T20:27:01.597Z,52.80
2018-05-03T20:29:27.602Z,51.71
2018-05-03T20:31:55.739Z,51.57
2018-05-03T20:34:21.720Z,52.44
2018-05-03T20:36:47.688Z,51.71
2018-05-03T20:39:13.770Z,52.00
2018-05-03T20:41:39.721Z,52.29
2018-05-03T20:44:05.714Z,52.17
2018-05-03T20:46:31.664Z,52.62
2018-05-03T20:48:57.654Z,53.06
2018-05-03T20:51:23.623Z,53.75
2018-05-03T20:53:49.603Z,53.75
2018-05-03T20:56:15.590Z,54.25
2018-05-03T20:58:41.580Z,53.39
2018-05-03T21:01:07.563Z,53.92
2018-05-03T21:03:33.518Z,54.59
2018-05-03T21:05:59.484Z,54.70
2018-05-03T21:08:25.445Z,54.70
2018-05-03T21:10:51.403Z,54.81
2018-05-03T21:13:17.347Z,55.61
2018-05-03T21:15:43.303Z,55.03
2018-05-03T21:18:09.230Z,53.69
2018-05-03T21:20:35.201Z,53.47
2018-05-03T21:23:01.171Z,52.21
2018-05-03T21:25:27.149Z,51.12
2018-05-03T21:27:53.103Z,50.41
2018-05-03T21:30:22.700Z,49.84
2018-05-03T21:32:48.644Z,48.74
2018-05-03T21:35:14.588Z,49.86
2018-05-03T21:37:40.538Z,47.38
2018-05-03T21:40:06.499Z,48.32
2018-05-03T21:42:32.433Z,47.71
2018-05-03T21:44:58.373Z,46.76
2018-05-03T21:47:24.337Z,47.50
2018-05-03T21:49:50.322Z,47.72
2018-05-03T21:52:16.316Z,46.43
2018-05-03T21:54:42.269Z,46.43
2018-05-03T21:57:08.219Z,46.60
2018-05-03T21:59:34.165Z,48.16
2018-05-03T22:02:00.093Z,48.01
2018-05-03T22:04:26.017Z,45.96
2018-05-03T22:06:51.970Z,46.45
2018-05-03T22:09:17.934Z,46.63
2018-05-03T22:11:43.887Z,46.23
2018-05-03T22:14:09.844Z,46.48
2018-05-03T22:16:35.799Z,46.45
2018-05-03T22:19:01.747Z,46.38
2018-05-03T22:21:27.693Z,46.15
2018-05-03T22:23:53.629Z,46.98
2018-05-03T22:26:19.592Z,47.17
2018-05-03T22:28:45.521Z,47.22
2018-05-03T22:31:11.479Z,46.01
2018-05-03T22:33:37.443Z,47.69
2018-05-03T22:36:03.418Z,46.46
2018-05-03T22:38:29.399Z,47.21
2018-05-03T22:40:55.333Z,47.41
2018-05-03T22:43:21.305Z,48.16
2018-05-03T22:45:47.313Z,46.30
2018-05-03T22:48:13.274Z,45.60
2018-05-03T22:50:39.234Z,44.65
2018-05-03T22:53:05.216Z,44.60
2018-05-03T22:55:31.169Z,45.55
2018-05-03T22:57:57.146Z,44.56
2018-05-03T23:00:23.081Z,46.03
2018-05-03T23:02:49.021Z,44.43
2018-05-03T23:05:15.027Z,44.27
2018-05-03T23:07:40.992Z,43.69
2018-05-03T23:10:06.951Z,45.71
2018-05-03T23:12:32.897Z,43.51
2018-05-03T23:14:58.889Z,45.55
2018-05-03T23:17:24.841Z,43.33
2018-05-03T23:19:50.798Z,43.59
2018-05-03T23:22:16.760Z,42.06
2018-05-03T23:24:42.773Z,43.27
2018-05-03T23:27:08.692Z,43.05
2018-05-03T23:29:34.643Z,42.03
2018-05-03T23:32:00.634Z,41.91
2018-05-03T23:34:26.603Z,42.95
2018-05-03T23:36:52.575Z,43.23
2018-05-03T23:39:18.603Z,42.22
2018-05-03T23:41:44.577Z,42.45
2018-05-03T23:44:10.532Z,44.91
2018-05-03T23:46:36.489Z,42.58
2018-05-03T23:49:02.468Z,42.27
2018-05-03T23:51:28.393Z,42.40
2018-05-03T23:53:54.361Z,41.99
2018-05-03T23:56:20.301Z,41.77
2018-05-03T23:58:46.265Z,43.72
